メインページ
METAR-TAF:

METAR-TAF

空港 :

チャーチル, マニトバ州, カナダ

緯度: 58-44N, 経度: 094-04W, 海抜: 28m

現時点の気象観測

当レポートは1時間3分前の21:00(UTC)に作成
西の風 6kt
気温 -29°C
湿度 50%
気圧 1023 hPa
視程: 24.1km
高度25000ftの雲はほとんどない

METAR: CYYQ 192100Z 27006KT 15SM FEW250 M29/M36 A3020 RMK CI1 SLP233

時間: 16:03 (22:03 UTC)

予報

当レポートは4時間25分前の17:38(UTC)に作成
予報は19日の 18時(UTC)から 20日の 18時(UTC)まで有効
西の風 10kt
視程: 10km
高度25000ftの雲はほとんどない
20日の 0000時(UTC)から
西の風 5kt
視程: 10km
高度14000ftの雲はほとんどない
高度20000ftの雲は散在している
20日の 0600時(UTC)から
変向風 3kt
視程: 10km
高度600ftの雲はほとんどない
高度14000ftの雲は散在している

TAF: CYYQ 191738Z 1918/2018 27010KT P6SM FEW250 FM200000 26005KT P6SM FEW140 SCT200 FM200600 VRB03KT P6SM FEW006 SCT140 RMK NXT FCST BY 200000Z

4,000以上の空港の気象観測と天気予報(METAR報とTAF報)

利用可能な観測所は地図上に黄色い丸と赤い丸で示す。

丸の上にカーソルを重ねると観測所名を参照できる。

次にクリックすると気象観測と天気予報を参照できる。

マップの切り替え:黒色「×」印の緑ボタンをクリックして拡大、「-」印の緑ボタンをクリックして縮小、緑色の三角印をクリックして隣りの地図に切り替え


METAR-TAF: